createdAt,value
2018-04-29T00:00:01.682Z,13.57
2018-04-29T00:02:29.096Z,10.50
2018-04-29T00:04:56.485Z,14.00
2018-04-29T00:07:23.929Z,9.97
2018-04-29T00:09:51.394Z,11.63
2018-04-29T00:12:18.801Z,9.90
2018-04-29T00:14:46.197Z,11.30
2018-04-29T00:17:13.604Z,14.00
2018-04-29T00:19:41.038Z,14.77
2018-04-29T00:22:08.441Z,12.97
2018-04-29T00:24:35.846Z,13.77
2018-04-29T00:27:03.286Z,15.23
2018-04-29T00:29:30.712Z,16.77
2018-04-29T00:31:58.109Z,16.17
2018-04-29T00:34:25.508Z,10.87
2018-04-29T00:36:52.989Z,13.67
2018-04-29T00:39:20.385Z,13.07
2018-04-29T00:41:47.797Z,13.00
2018-04-29T00:44:15.317Z,13.80
2018-04-29T00:46:42.720Z,12.27
2018-04-29T00:49:10.181Z,16.60
2018-04-29T00:51:49.430Z,17.13
2018-04-29T00:54:16.884Z,16.70
2018-04-29T00:56:44.343Z,14.57
2018-04-29T00:59:11.748Z,10.27
2018-04-29T01:01:39.257Z,13.33
2018-04-29T01:04:06.753Z,31.27
2018-04-29T01:06:34.176Z,13.10
2018-04-29T01:09:01.637Z,13.80
2018-04-29T01:11:29.051Z,13.40
2018-04-29T01:13:56.865Z,13.43
2018-04-29T01:16:24.264Z,10.90
2018-04-29T01:18:51.668Z,11.63
2018-04-29T01:21:19.061Z,11.47
2018-04-29T01:23:46.477Z,14.80
2018-04-29T01:26:13.872Z,11.83
2018-04-29T01:28:41.299Z,13.70
2018-04-29T01:31:08.705Z,18.00
2018-04-29T01:33:36.114Z,14.30
2018-04-29T01:36:03.549Z,22.77
2018-04-29T01:38:31.011Z,16.10
2018-04-29T01:40:58.400Z,15.70
2018-04-29T01:43:25.840Z,15.37
2018-04-29T01:45:53.263Z,22.87
2018-04-29T01:48:20.729Z,16.73
2018-04-29T01:50:48.141Z,11.17
2018-04-29T01:53:15.544Z,22.03
2018-04-29T01:55:42.956Z,14.77
2018-04-29T01:58:10.412Z,14.30
2018-04-29T02:00:37.883Z,23.93
2018-04-29T02:03:05.289Z,13.93
2018-04-29T02:05:32.681Z,17.83
2018-04-29T02:08:00.144Z,12.80
2018-04-29T02:10:27.532Z,16.83
2018-04-29T02:12:54.933Z,13.77
2018-04-29T02:15:22.419Z,14.40
2018-04-29T02:17:49.829Z,16.73
2018-04-29T02:20:17.329Z,15.40
2018-04-29T02:22:44.728Z,20.33
2018-04-29T02:25:12.133Z,19.87
2018-04-29T02:27:39.644Z,15.97
2018-04-29T02:30:07.069Z,13.03
2018-04-29T02:32:34.524Z,20.60
2018-04-29T02:35:02.017Z,17.63
2018-04-29T02:37:29.440Z,14.93
2018-04-29T02:39:56.892Z,21.63
2018-04-29T02:42:24.297Z,17.40
2018-04-29T02:44:51.699Z,26.67
2018-04-29T02:47:19.164Z,17.80
2018-04-29T02:49:46.574Z,24.20
2018-04-29T02:52:13.972Z,21.87
2018-04-29T02:54:41.378Z,24.70
2018-04-29T02:57:08.790Z,20.00
2018-04-29T02:59:36.285Z,22.60
2018-04-29T03:02:03.720Z,20.40
2018-04-29T03:04:31.104Z,22.70
2018-04-29T03:06:58.608Z,16.97
2018-04-29T03:09:26.087Z,24.70
2018-04-29T03:11:53.501Z,15.63
2018-04-29T03:14:20.986Z,16.80
2018-04-29T03:16:48.436Z,17.90
2018-04-29T03:19:15.908Z,19.07
2018-04-29T03:21:43.320Z,24.23
2018-04-29T03:24:10.724Z,21.10
2018-04-29T03:26:38.142Z,23.83
2018-04-29T03:29:05.621Z,22.07
2018-04-29T03:31:33.055Z,18.50
2018-04-29T03:34:00.460Z,29.43
2018-04-29T03:36:27.861Z,25.17
2018-04-29T03:38:55.359Z,21.63
2018-04-29T03:41:22.763Z,22.53
2018-04-29T03:43:50.307Z,26.13
2018-04-29T03:46:17.704Z,19.53
2018-04-29T03:48:45.189Z,29.47
2018-04-29T03:51:12.594Z,20.20
2018-04-29T03:53:40.001Z,21.23
2018-04-29T03:56:07.498Z,25.80
2018-04-29T03:58:46.616Z,24.97
2018-04-29T04:01:25.805Z,25.83
2018-04-29T04:03:57.553Z,28.63
2018-04-29T04:06:24.960Z,25.90
2018-04-29T04:08:52.471Z,26.53
2018-04-29T04:11:19.877Z,22.47
2018-04-29T04:13:47.290Z,24.17
2018-04-29T04:16:14.757Z,20.07
2018-04-29T04:18:42.164Z,25.50
2018-04-29T04:21:09.638Z,22.43
2018-04-29T04:23:37.070Z,19.67
2018-04-29T04:26:04.457Z,22.43
2018-04-29T04:28:31.882Z,24.43
2018-04-29T04:30:59.374Z,25.23
2018-04-29T04:33:26.789Z,16.97
2018-04-29T04:35:54.301Z,18.20
2018-04-29T04:38:21.705Z,25.90
2018-04-29T04:40:49.112Z,24.47
2018-04-29T04:43:16.523Z,27.30
2018-04-29T04:45:44.020Z,20.17
2018-04-29T04:48:11.424Z,23.00
2018-04-29T04:50:38.957Z,21.83
2018-04-29T04:53:06.325Z,21.40
2018-04-29T04:55:33.733Z,23.90
2018-04-29T04:58:01.218Z,29.20
2018-04-29T05:00:28.624Z,25.53
2018-04-29T05:02:56.029Z,22.83
2018-04-29T05:05:23.469Z,22.40
2018-04-29T05:07:50.870Z,18.60
2018-04-29T05:10:18.265Z,21.40
2018-04-29T05:12:45.677Z,18.90
2018-04-29T05:15:13.084Z,15.80
2018-04-29T05:17:40.477Z,21.87
2018-04-29T05:20:07.883Z,16.53
2018-04-29T05:22:35.362Z,17.57
2018-04-29T05:25:02.818Z,16.57
2018-04-29T05:27:30.213Z,16.57
2018-04-29T05:29:57.613Z,14.40
2018-04-29T05:32:25.017Z,19.70
2018-04-29T05:34:52.439Z,11.50
2018-04-29T05:37:19.840Z,14.30
2018-04-29T05:39:47.377Z,14.00
2018-04-29T05:42:14.810Z,16.27
2018-04-29T05:44:43.117Z,14.30
2018-04-29T05:47:10.525Z,15.10
2018-04-29T05:49:37.929Z,14.20
2018-04-29T05:52:05.348Z,12.57
2018-04-29T05:54:32.814Z,13.03
2018-04-29T05:57:00.237Z,12.33
2018-04-29T05:59:27.726Z,12.60
2018-04-29T06:01:55.181Z,13.07
2018-04-29T06:04:22.580Z,19.40
2018-04-29T06:06:49.989Z,14.63
2018-04-29T06:09:17.445Z,16.50
2018-04-29T06:11:45.667Z,14.37
2018-04-29T06:14:13.085Z,14.63
2018-04-29T06:16:40.534Z,12.67
2018-04-29T06:19:07.953Z,15.27
2018-04-29T06:21:35.364Z,8.63
2018-04-29T06:24:02.817Z,9.50
2018-04-29T06:26:30.271Z,10.93
2018-04-29T06:28:57.718Z,8.53
2018-04-29T06:31:25.206Z,11.93
2018-04-29T06:33:52.593Z,12.97
2018-04-29T06:36:20.001Z,7.60
2018-04-29T06:38:47.448Z,8.30
2018-04-29T06:41:14.982Z,10.60
2018-04-29T06:43:42.466Z,10.90
2018-04-29T06:46:09.852Z,8.30
2018-04-29T06:48:37.778Z,14.80
2018-04-29T06:51:05.182Z,9.90
2018-04-29T06:53:32.613Z,13.23
2018-04-29T06:55:59.981Z,12.93
2018-04-29T06:58:27.369Z,10.33
2018-04-29T07:00:54.863Z,9.03
2018-04-29T07:03:22.495Z,8.90
2018-04-29T07:05:49.896Z,9.00
2018-04-29T07:08:17.372Z,8.50
2018-04-29T07:10:44.705Z,14.77
2018-04-29T07:13:12.146Z,7.53
2018-04-29T07:15:39.578Z,9.90
2018-04-29T07:18:07.057Z,6.07
2018-04-29T07:20:34.518Z,9.67
2018-04-29T07:23:01.923Z,8.03
2018-04-29T07:25:29.435Z,5.13
2018-04-29T07:27:56.890Z,5.77
2018-04-29T07:30:24.306Z,6.30
2018-04-29T07:32:51.801Z,6.67
2018-04-29T07:35:19.202Z,9.23
2018-04-29T07:37:46.592Z,6.43
2018-04-29T07:40:14.167Z,7.60
2018-04-29T07:42:41.465Z,6.40
2018-04-29T07:45:08.865Z,8.33
2018-04-29T07:47:36.364Z,6.80
2018-04-29T07:50:03.741Z,4.83
2018-04-29T07:52:31.331Z,7.80
2018-04-29T07:54:58.619Z,7.77
2018-04-29T07:57:26.009Z,7.33
2018-04-29T07:59:53.412Z,7.33
2018-04-29T08:02:20.805Z,5.77
2018-04-29T08:04:48.207Z,6.63
2018-04-29T08:07:15.605Z,7.60
2018-04-29T08:09:43.028Z,9.80
2018-04-29T08:12:10.462Z,6.73
2018-04-29T08:14:37.925Z,4.97
2018-04-29T08:17:05.317Z,5.47
2018-04-29T08:19:32.701Z,4.60
2018-04-29T08:22:00.097Z,7.07
2018-04-29T08:24:27.529Z,8.03
2018-04-29T08:26:54.929Z,7.90
2018-04-29T08:29:22.320Z,6.33
2018-04-29T08:31:49.813Z,6.90
2018-04-29T08:34:17.227Z,8.03
2018-04-29T08:36:44.640Z,7.63
2018-04-29T08:39:12.025Z,6.67
2018-04-29T08:41:39.429Z,8.23
2018-04-29T08:44:06.901Z,9.30
2018-04-29T08:46:34.370Z,4.43
2018-04-29T08:49:01.762Z,11.67
2018-04-29T08:51:29.160Z,4.80
2018-04-29T08:53:56.631Z,7.67
2018-04-29T08:56:24.017Z,6.43
2018-04-29T08:58:51.417Z,8.13
2018-04-29T09:01:18.914Z,5.53
2018-04-29T09:03:46.376Z,4.00
2018-04-29T09:06:13.751Z,3.60
2018-04-29T09:08:41.141Z,10.50
2018-04-29T09:11:08.537Z,7.50
2018-04-29T09:13:35.926Z,9.80
2018-04-29T09:16:03.424Z,5.47
2018-04-29T09:18:30.889Z,9.07
2018-04-29T09:20:58.373Z,5.43
2018-04-29T09:23:25.801Z,10.93
2018-04-29T09:25:53.263Z,7.20
2018-04-29T09:28:20.721Z,8.67
2018-04-29T09:30:48.122Z,6.67
2018-04-29T09:33:15.525Z,7.37
2018-04-29T09:35:42.994Z,7.47
2018-04-29T09:38:10.381Z,6.83
2018-04-29T09:40:37.798Z,6.03
2018-04-29T09:43:05.266Z,3.00
2018-04-29T09:45:32.713Z,7.37
2018-04-29T09:48:00.101Z,5.47
2018-04-29T09:50:27.529Z,5.47
2018-04-29T09:52:54.913Z,6.40
2018-04-29T09:55:22.373Z,6.70
2018-04-29T09:57:49.693Z,6.03
2018-04-29T10:00:31.976Z,8.27
2018-04-29T10:03:04.856Z,13.00
2018-04-29T10:05:32.253Z,4.97
2018-04-29T10:07:59.650Z,10.10
2018-04-29T10:10:27.189Z,3.53
2018-04-29T10:12:54.565Z,5.83
2018-04-29T10:15:21.968Z,6.83
2018-04-29T10:17:49.429Z,6.77
2018-04-29T10:20:16.820Z,10.37
2018-04-29T10:22:44.237Z,9.77
2018-04-29T10:25:11.693Z,3.43
2018-04-29T10:27:39.091Z,8.03
2018-04-29T10:30:06.479Z,3.33
2018-04-29T10:32:33.881Z,5.60
2018-04-29T10:35:01.320Z,6.40
2018-04-29T10:37:28.726Z,2.37
2018-04-29T10:39:56.113Z,9.23
2018-04-29T10:42:23.509Z,6.60
2018-04-29T10:44:50.916Z,7.60
2018-04-29T10:47:19.192Z,7.33
2018-04-29T10:49:46.589Z,5.07
2018-04-29T10:52:14.005Z,7.43
2018-04-29T10:54:41.389Z,3.57
2018-04-29T10:57:08.833Z,7.03
2018-04-29T10:59:36.217Z,5.07
2018-04-29T11:02:03.617Z,10.47
2018-04-29T11:04:31.005Z,8.73
2018-04-29T11:06:58.416Z,13.13
2018-04-29T11:09:25.898Z,6.53
2018-04-29T11:11:53.357Z,5.20
2018-04-29T11:14:20.744Z,8.33
2018-04-29T11:16:48.141Z,8.67
2018-04-29T11:19:15.694Z,6.93
2018-04-29T11:21:43.076Z,2.80
2018-04-29T11:24:10.477Z,7.60
2018-04-29T11:26:37.873Z,4.90
2018-04-29T11:29:05.269Z,5.13
2018-04-29T11:31:33.593Z,12.43
2018-04-29T11:34:00.985Z,4.20
2018-04-29T11:36:28.453Z,13.87
2018-04-29T11:38:55.849Z,9.60
2018-04-29T11:41:23.241Z,6.90
2018-04-29T11:43:50.632Z,8.87
2018-04-29T11:46:18.028Z,7.50
2018-04-29T11:48:45.513Z,5.50
2018-04-29T11:51:12.930Z,11.80
2018-04-29T11:53:40.322Z,4.40
2018-04-29T11:56:07.786Z,6.97
2018-04-29T11:58:35.249Z,5.63
2018-04-29T12:01:02.637Z,6.40
2018-04-29T12:03:30.050Z,3.10
2018-04-29T12:05:57.522Z,11.10
2018-04-29T12:08:24.968Z,5.90
2018-04-29T12:10:52.369Z,12.97
2018-04-29T12:13:19.765Z,5.37
2018-04-29T12:15:47.169Z,6.60
2018-04-29T12:18:14.576Z,9.87
2018-04-29T12:20:42.057Z,7.17
2018-04-29T12:23:09.533Z,11.67
2018-04-29T12:25:36.997Z,7.30
2018-04-29T12:28:04.393Z,6.93
2018-04-29T12:30:31.820Z,5.40
2018-04-29T12:32:59.210Z,6.03
2018-04-29T12:35:26.613Z,7.73
2018-04-29T12:37:54.061Z,6.80
2018-04-29T12:40:21.458Z,7.17
2018-04-29T12:42:48.848Z,7.90
2018-04-29T12:45:16.329Z,14.93
2018-04-29T12:47:43.737Z,11.20
2018-04-29T12:50:11.674Z,10.33
2018-04-29T12:52:39.113Z,10.27
2018-04-29T12:55:06.566Z,5.40
2018-04-29T12:57:33.960Z,5.43
2018-04-29T13:00:01.561Z,6.20
2018-04-29T13:02:28.936Z,5.93
2018-04-29T13:04:56.359Z,10.17
2018-04-29T13:07:23.788Z,8.73
2018-04-29T13:09:51.172Z,4.57
2018-04-29T13:12:19.355Z,10.03
2018-04-29T13:14:46.826Z,11.03
2018-04-29T13:17:14.217Z,5.00
2018-04-29T13:19:41.614Z,7.77
2018-04-29T13:22:09.009Z,8.73
2018-04-29T13:24:36.410Z,6.40
2018-04-29T13:27:03.812Z,8.90
2018-04-29T13:29:31.293Z,10.80
2018-04-29T13:31:58.752Z,9.13
2018-04-29T13:34:26.128Z,4.87
2018-04-29T13:36:53.525Z,4.03
2018-04-29T13:39:20.905Z,7.70
2018-04-29T13:41:48.293Z,3.90
2018-04-29T13:44:15.672Z,9.20
2018-04-29T13:46:43.161Z,8.53
2018-04-29T13:49:10.689Z,5.37
2018-04-29T13:51:38.121Z,5.70
2018-04-29T13:54:05.495Z,6.40
2018-04-29T13:56:32.908Z,8.23
2018-04-29T13:59:00.365Z,4.67
2018-04-29T14:01:27.749Z,4.20
2018-04-29T14:03:55.146Z,5.20
2018-04-29T14:06:22.622Z,4.90
2018-04-29T14:08:50.017Z,3.67
2018-04-29T14:11:17.409Z,5.30
2018-04-29T14:13:44.813Z,12.70
2018-04-29T14:16:12.233Z,5.10
2018-04-29T14:18:39.700Z,4.70
2018-04-29T14:21:07.100Z,9.70
2018-04-29T14:23:34.497Z,6.57
2018-04-29T14:26:01.893Z,10.60
2018-04-29T14:28:29.289Z,2.27
2018-04-29T14:30:56.701Z,8.60
2018-04-29T14:33:24.082Z,7.40
2018-04-29T14:35:51.472Z,8.70
2018-04-29T14:38:18.865Z,8.10
2018-04-29T14:40:47.439Z,7.00
2018-04-29T14:43:14.897Z,4.10
2018-04-29T14:45:42.277Z,4.27
2018-04-29T14:48:09.681Z,5.67
2018-04-29T14:50:37.072Z,5.40
2018-04-29T14:53:04.478Z,4.73
2018-04-29T14:55:31.868Z,9.07
2018-04-29T14:57:59.272Z,9.30
2018-04-29T15:00:26.750Z,6.30
2018-04-29T15:02:54.191Z,5.43
2018-04-29T15:05:21.652Z,3.13
2018-04-29T15:07:49.104Z,3.87
2018-04-29T15:10:16.488Z,3.73
2018-04-29T15:12:43.882Z,7.67
2018-04-29T15:15:11.377Z,6.63
2018-04-29T15:17:38.857Z,9.53
2018-04-29T15:20:06.242Z,6.30
2018-04-29T15:22:33.650Z,7.03
2018-04-29T15:25:01.053Z,5.27
2018-04-29T15:27:28.747Z,13.27
2018-04-29T15:29:56.133Z,9.67
2018-04-29T15:32:23.593Z,5.80
2018-04-29T15:34:50.999Z,6.83
2018-04-29T15:37:18.517Z,7.30
2018-04-29T15:39:45.905Z,7.87
2018-04-29T15:42:13.304Z,5.67
2018-04-29T15:44:40.783Z,5.73
2018-04-29T15:47:08.167Z,4.73
2018-04-29T15:49:35.583Z,4.63
2018-04-29T15:52:03.038Z,8.73
2018-04-29T15:54:30.588Z,4.13
2018-04-29T15:56:57.884Z,6.83
2018-04-29T15:59:25.360Z,4.20
2018-04-29T16:01:52.813Z,13.53
2018-04-29T16:04:20.266Z,7.47
2018-04-29T16:06:47.737Z,11.00
2018-04-29T16:09:15.186Z,4.10
2018-04-29T16:11:42.657Z,5.97
2018-04-29T16:14:10.010Z,7.67
2018-04-29T16:16:37.383Z,6.40
2018-04-29T16:19:04.818Z,7.70
2018-04-29T16:21:32.218Z,6.50
2018-04-29T16:23:59.726Z,5.47
2018-04-29T16:26:27.076Z,7.23
2018-04-29T16:28:54.475Z,7.63
2018-04-29T16:31:21.848Z,4.87
2018-04-29T16:33:49.249Z,5.53
2018-04-29T16:36:16.633Z,8.90
2018-04-29T16:38:44.945Z,3.93
2018-04-29T16:41:12.421Z,6.23
2018-04-29T16:43:39.855Z,4.60
2018-04-29T16:46:07.318Z,6.33
2018-04-29T16:48:34.709Z,11.97
2018-04-29T16:51:02.143Z,5.83
2018-04-29T16:53:29.543Z,6.10
2018-04-29T16:55:56.937Z,4.90
2018-04-29T16:58:24.401Z,4.40
2018-04-29T17:00:51.799Z,7.10
2018-04-29T17:03:19.218Z,10.23
2018-04-29T17:05:46.613Z,6.27
2018-04-29T17:08:14.025Z,5.80
2018-04-29T17:10:41.510Z,4.13
2018-04-29T17:13:08.905Z,5.47
2018-04-29T17:15:36.309Z,9.13
2018-04-29T17:18:03.701Z,6.60
2018-04-29T17:20:31.109Z,6.63
2018-04-29T17:22:58.580Z,5.80
2018-04-29T17:25:25.977Z,8.20
2018-04-29T17:27:53.454Z,4.70
2018-04-29T17:30:20.840Z,6.23
2018-04-29T17:32:48.276Z,7.23
2018-04-29T17:35:15.729Z,6.93
2018-04-29T17:37:43.157Z,12.93
2018-04-29T17:40:10.558Z,8.00
2018-04-29T17:42:37.934Z,8.50
2018-04-29T17:45:05.357Z,9.10
2018-04-29T17:47:32.827Z,7.93
2018-04-29T17:50:00.228Z,4.73
2018-04-29T17:52:27.717Z,11.23
2018-04-29T17:54:55.112Z,8.90
2018-04-29T17:57:22.518Z,5.30
2018-04-29T17:59:49.908Z,9.70
2018-04-29T18:02:17.311Z,7.67
2018-04-29T18:04:44.700Z,6.30
2018-04-29T18:07:12.113Z,7.40
2018-04-29T18:09:39.492Z,6.33
2018-04-29T18:12:06.881Z,5.57
2018-04-29T18:14:34.273Z,13.53
2018-04-29T18:17:01.656Z,5.53
2018-04-29T18:19:29.047Z,6.50
2018-04-29T18:21:56.512Z,5.53
2018-04-29T18:24:23.937Z,9.07
2018-04-29T18:26:51.321Z,8.87
2018-04-29T18:29:18.714Z,16.10
2018-04-29T18:31:46.157Z,5.33
2018-04-29T18:34:13.573Z,7.67
2018-04-29T18:36:41.037Z,13.00
2018-04-29T18:39:08.441Z,12.50
2018-04-29T18:41:35.845Z,8.47
2018-04-29T18:44:03.296Z,8.90
2018-04-29T18:46:30.702Z,5.37
2018-04-29T18:48:58.093Z,4.60
2018-04-29T18:51:25.561Z,8.47
2018-04-29T18:53:52.873Z,6.43
2018-04-29T18:56:20.318Z,8.20
2018-04-29T18:58:47.745Z,10.90
2018-04-29T19:01:15.179Z,7.80
2018-04-29T19:03:42.549Z,8.10
2018-04-29T19:06:09.936Z,6.40
2018-04-29T19:08:37.336Z,9.13
2018-04-29T19:11:04.835Z,7.87
2018-04-29T19:13:32.229Z,6.20
2018-04-29T19:15:59.720Z,4.20
2018-04-29T19:18:27.165Z,4.07
2018-04-29T19:20:54.565Z,11.20
2018-04-29T19:23:21.977Z,5.37
2018-04-29T19:25:49.381Z,8.87
2018-04-29T19:28:16.827Z,11.00
2018-04-29T19:30:44.240Z,8.10
2018-04-29T19:33:11.703Z,6.30
2018-04-29T19:35:39.093Z,9.73
2018-04-29T19:38:06.506Z,6.70
2018-04-29T19:40:33.982Z,8.30
2018-04-29T19:43:01.422Z,6.80
2018-04-29T19:45:28.852Z,8.30
2018-04-29T19:47:56.240Z,10.23
2018-04-29T19:50:23.704Z,13.67
2018-04-29T19:52:51.109Z,5.40
2018-04-29T19:55:18.520Z,15.63
2018-04-29T19:57:45.976Z,5.63
2018-04-29T20:00:13.373Z,11.30
2018-04-29T20:02:40.756Z,4.80
2018-04-29T20:05:08.150Z,7.63
2018-04-29T20:07:35.538Z,10.10
2018-04-29T20:10:02.964Z,14.03
2018-04-29T20:12:30.421Z,14.57
2018-04-29T20:14:57.901Z,14.13
2018-04-29T20:17:25.309Z,9.50
2018-04-29T20:19:52.797Z,7.50
2018-04-29T20:22:20.237Z,11.63
2018-04-29T20:24:47.711Z,8.53
2018-04-29T20:27:15.097Z,5.37
2018-04-29T20:29:42.503Z,9.53
2018-04-29T20:32:09.893Z,5.07
2018-04-29T20:34:37.294Z,11.37
2018-04-29T20:37:04.769Z,7.90
2018-04-29T20:39:32.172Z,10.13
2018-04-29T20:41:59.589Z,4.57
2018-04-29T20:44:26.995Z,9.50
2018-04-29T20:46:54.390Z,10.43
2018-04-29T20:49:21.789Z,8.10
2018-04-29T20:51:49.208Z,8.50
2018-04-29T20:54:16.613Z,14.73
2018-04-29T20:56:44.010Z,20.87
2018-04-29T20:59:11.421Z,11.77
2018-04-29T21:01:38.818Z,7.53
2018-04-29T21:04:06.195Z,7.13
2018-04-29T21:06:33.641Z,7.63
2018-04-29T21:09:01.040Z,6.53
2018-04-29T21:11:28.437Z,10.50
2018-04-29T21:13:55.838Z,7.87
2018-04-29T21:16:23.269Z,6.40
2018-04-29T21:18:50.657Z,10.73
2018-04-29T21:21:18.049Z,8.20
2018-04-29T21:23:45.466Z,7.80
2018-04-29T21:26:12.895Z,8.90
2018-04-29T21:28:40.582Z,10.13
2018-04-29T21:31:07.973Z,5.90
2018-04-29T21:33:35.429Z,5.83
2018-04-29T21:36:02.820Z,7.07
2018-04-29T21:38:30.291Z,6.00
2018-04-29T21:40:57.693Z,5.50
2018-04-29T21:43:25.080Z,6.70
2018-04-29T21:45:52.546Z,5.90
2018-04-29T21:48:19.929Z,6.97
2018-04-29T21:50:47.357Z,13.23
2018-04-29T21:53:14.831Z,3.53
2018-04-29T21:55:42.217Z,9.77
2018-04-29T21:58:09.640Z,9.90
2018-04-29T22:00:37.044Z,8.17
2018-04-29T22:03:04.533Z,7.20
2018-04-29T22:05:32.019Z,8.67
2018-04-29T22:07:59.465Z,5.27
2018-04-29T22:10:26.915Z,5.50
2018-04-29T22:12:54.293Z,7.67
2018-04-29T22:15:21.689Z,7.87
2018-04-29T22:17:49.090Z,10.57
2018-04-29T22:20:16.550Z,4.73
2018-04-29T22:22:43.929Z,5.10
2018-04-29T22:25:11.317Z,6.70
2018-04-29T22:27:38.793Z,16.83
2018-04-29T22:30:06.189Z,5.13
2018-04-29T22:32:33.609Z,7.17
2018-04-29T22:35:01.000Z,6.10
2018-04-29T22:37:28.412Z,8.80
2018-04-29T22:39:55.897Z,8.93
2018-04-29T22:42:23.317Z,8.20
2018-04-29T22:44:50.797Z,5.47
2018-04-29T22:47:18.211Z,7.73
2018-04-29T22:49:45.609Z,7.00
2018-04-29T22:52:13.029Z,5.00
2018-04-29T22:54:40.413Z,7.87
2018-04-29T22:57:07.825Z,7.07
2018-04-29T22:59:35.284Z,5.20
2018-04-29T23:02:02.678Z,9.70
2018-04-29T23:04:30.097Z,7.10
2018-04-29T23:06:57.485Z,6.83
2018-04-29T23:09:24.882Z,3.40
2018-04-29T23:11:52.293Z,8.17
2018-04-29T23:14:19.681Z,12.80
2018-04-29T23:16:47.101Z,5.07
2018-04-29T23:19:14.513Z,13.30
2018-04-29T23:21:41.940Z,6.57
2018-04-29T23:24:09.422Z,5.10
2018-04-29T23:26:36.811Z,8.23
2018-04-29T23:29:04.213Z,6.47
2018-04-29T23:31:31.624Z,5.70
2018-04-29T23:33:59.015Z,4.47
2018-04-29T23:36:26.477Z,9.80
2018-04-29T23:38:53.941Z,5.70
2018-04-29T23:41:21.397Z,5.93
2018-04-29T23:43:48.853Z,4.00
2018-04-29T23:46:16.305Z,3.97
2018-04-29T23:48:43.702Z,6.30
2018-04-29T23:51:11.094Z,7.07
2018-04-29T23:53:38.474Z,4.43
2018-04-29T23:56:05.884Z,7.50
2018-04-29T23:58:33.269Z,4.80
